Time;durP1;ratioP1;P1;durP2;ratioP2;P2;SDS_P1;SDS_P2;PMS_P1;PMS_P2;Temp;Humidity;BMP_temperature;BMP_pressure;BME280_temperature;BME280_humidity;BME280_pressure;Samples;Min_cycle;Max_cycle;Signal;HPM_P1;HPM_P2
2022/05/21 00:00:24;;;;;;;8.30;4.73;;;21.30;73.10;;;;;;5076856;28;20642;-69
2022/05/21 00:02:51;;;;;;;10.77;4.50;;;21.20;73.30;;;;;;5074239;28;20233;-69
2022/05/21 00:05:20;;;;;;;7.17;4.03;;;21.20;73.90;;;;;;5088938;28;20641;-69
2022/05/21 00:07:48;;;;;;;8.33;4.80;;;21.20;74.70;;;;;;5070035;28;20207;-69
2022/05/21 00:10:16;;;;;;;5.57;4.00;;;21.20;75.30;;;;;;5080735;28;20201;-69
2022/05/21 00:12:44;;;;;;;5.73;4.10;;;21.20;75.50;;;;;;5078554;28;20208;-69
2022/05/21 00:15:15;;;;;;;6.90;4.87;;;21.20;75.50;;;;;;5103012;28;20582;-69
2022/05/21 00:17:43;;;;;;;8.73;4.77;;;21.10;75.60;;;;;;5081016;28;20212;-69
2022/05/21 00:20:47;;;;;;;8.97;4.33;;;21.10;75.70;;;;;;5087139;28;20713;-69
2022/05/21 00:22:58;;;;;;;9.00;4.63;;;21.10;75.30;;;;;;5088059;28;20595;-68
2022/05/21 00:25:25;;;;;;;8.63;4.17;;;21.10;75.50;;;;;;5077879;28;20304;-68
2022/05/21 00:27:52;;;;;;;6.63;4.50;;;21.00;74.50;;;;;;5077811;28;20699;-68
2022/05/21 00:30:19;;;;;;;9.63;4.13;;;21.00;73.90;;;;;;5087628;28;20300;-68
2022/05/21 00:32:46;;;;;;;6.23;4.23;;;21.00;73.40;;;;;;5088806;28;20615;-69
2022/05/21 00:35:13;;;;;;;9.43;4.53;;;20.90;72.80;;;;;;5061969;28;20223;-68
2022/05/21 00:37:40;;;;;;;5.00;3.77;;;20.90;72.40;;;;;;5059219;28;20220;-68
2022/05/21 00:40:08;;;;;;;10.33;4.97;;;20.90;72.30;;;;;;5080566;28;20247;-68
2022/05/21 00:42:35;;;;;;;7.43;4.50;;;20.90;72.50;;;;;;5081871;28;20713;-69
2022/05/21 00:45:03;;;;;;;8.93;4.33;;;20.90;72.50;;;;;;5084633;28;20527;-69
2022/05/21 00:47:30;;;;;;;11.97;4.33;;;20.80;72.50;;;;;;5090461;28;20639;-69
2022/05/21 00:49:58;;;;;;;13.07;4.17;;;20.80;72.50;;;;;;5082262;28;20214;-68
2022/05/21 00:52:27;;;;;;;8.07;4.23;;;20.80;72.60;;;;;;5087272;28;20210;-68
2022/05/21 00:55:00;;;;;;;6.63;4.27;;;20.80;72.70;;;;;;5086232;28;20200;-66
2022/05/21 00:57:34;;;;;;;7.77;4.53;;;20.80;72.90;;;;;;5096684;28;20206;-67
2022/05/21 01:00:13;;;;;;;8.97;4.87;;;20.80;72.90;;;;;;5076930;28;20211;-68
2022/05/21 01:02:53;;;;;;;9.60;4.90;;;20.80;73.00;;;;;;5091713;28;20237;-69
2022/05/21 01:05:23;;;;;;;12.23;4.93;;;20.80;72.70;;;;;;5067935;28;20532;-68
2022/05/21 01:07:55;;;;;;;8.20;4.50;;;20.80;72.50;;;;;;5076944;28;20295;-68
2022/05/21 01:10:27;;;;;;;6.40;4.47;;;20.80;72.30;;;;;;5070548;28;20208;-68
2022/05/21 01:12:56;;;;;;;7.23;4.73;;;20.80;72.40;;;;;;5081776;28;20232;-68
2022/05/21 01:15:32;;;;;;;13.77;4.90;;;20.70;72.70;;;;;;5076439;28;20243;-68
2022/05/21 01:17:59;;;;;;;10.10;4.37;;;20.70;72.60;;;;;;5094151;28;20221;-68
2022/05/21 01:20:39;;;;;;;4.87;4.30;;;20.70;72.70;;;;;;5084099;28;20212;-68
2022/05/21 01:23:07;;;;;;;11.33;5.53;;;20.70;72.40;;;;;;5078787;28;20749;-68
2022/05/21 01:25:37;;;;;;;6.00;4.13;;;20.70;72.20;;;;;;5087868;28;20212;-68
2022/05/21 01:28:09;;;;;;;11.07;4.20;;;20.60;72.10;;;;;;5093994;28;20211;-68
2022/05/21 01:30:45;;;;;;;9.37;3.97;;;20.60;72.10;;;;;;5085160;28;20212;-68
2022/05/21 01:33:15;;;;;;;6.60;3.93;;;20.50;72.20;;;;;;5093545;28;20226;-68
2022/05/21 01:35:44;;;;;;;6.10;4.13;;;20.50;72.20;;;;;;5088009;28;20219;-68
2022/05/21 01:38:13;;;;;;;6.17;3.90;;;20.50;72.60;;;;;;5093547;28;20240;-68
2022/05/21 01:40:41;;;;;;;7.43;4.10;;;20.40;72.80;;;;;;5087046;28;20542;-68
2022/05/21 01:45:54;;;;;;;13.60;4.93;;;20.40;73.30;;;;;;5087896;28;20717;-68
2022/05/21 01:48:24;;;;;;;12.77;5.37;;;20.40;73.70;;;;;;5091039;28;20638;-69
2022/05/21 01:50:53;;;;;;;9.03;4.80;;;20.30;74.00;;;;;;5093870;28;20249;-69
2022/05/21 01:53:22;;;;;;;12.00;5.07;;;20.30;74.60;;;;;;5093461;28;20226;-69
2022/05/21 01:55:50;;;;;;;14.47;5.03;;;20.20;74.80;;;;;;5085454;28;20216;-70
2022/05/21 01:58:17;;;;;;;8.93;4.20;;;20.20;75.10;;;;;;5078062;28;20290;-70
2022/05/21 02:00:44;;;;;;;7.77;4.73;;;20.20;75.20;;;;;;5085822;28;20350;-70
2022/05/21 02:03:14;;;;;;;13.40;4.67;;;20.20;75.50;;;;;;5074259;28;20225;-70
2022/05/21 02:05:44;;;;;;;9.43;4.40;;;20.10;75.60;;;;;;5085295;28;20199;-70
2022/05/21 02:08:16;;;;;;;8.57;4.33;;;20.00;75.60;;;;;;5093144;28;20200;-68
2022/05/21 02:10:44;;;;;;;12.03;4.53;;;20.00;75.70;;;;;;5088951;28;20191;-68
2022/05/21 02:13:23;;;;;;;13.53;4.43;;;20.00;75.60;;;;;;5079935;28;20838;-68
2022/05/21 02:15:51;;;;;;;8.37;4.70;;;19.90;75.90;;;;;;5084760;28;20217;-68
2022/05/21 02:18:18;;;;;;;8.13;4.50;;;19.90;76.10;;;;;;5093223;28;20200;-68
2022/05/21 02:20:51;;;;;;;11.07;4.23;;;19.80;76.40;;;;;;5086697;28;20300;-66
2022/05/21 02:23:19;;;;;;;8.57;4.67;;;19.80;76.80;;;;;;5077355;28;20232;-67
2022/05/21 02:25:46;;;;;;;6.03;4.83;;;19.80;76.90;;;;;;5083735;28;20207;-66
2022/05/21 02:28:14;;;;;;;8.13;4.90;;;19.80;77.10;;;;;;5092576;28;20210;-69
2022/05/21 02:30:43;;;;;;;12.47;5.10;;;19.80;77.10;;;;;;5069867;28;20564;-67
2022/05/21 02:33:10;;;;;;;13.03;4.87;;;19.80;77.00;;;;;;5060853;28;20223;-66
2022/05/21 02:35:37;;;;;;;10.03;5.23;;;19.70;77.00;;;;;;5098424;28;20216;-66
2022/05/21 02:40:50;;;;;;;11.00;5.07;;;19.70;77.70;;;;;;5087573;28;20222;-66
2022/05/21 02:43:17;;;;;;;8.37;4.60;;;19.60;77.90;;;;;;5077250;28;20220;-67
2022/05/21 02:45:45;;;;;;;11.90;6.20;;;19.70;78.10;;;;;;5081914;28;20194;-66
2022/05/21 02:48:12;;;;;;;10.07;5.70;;;19.60;78.20;;;;;;5088037;28;20668;-66
2022/05/21 02:50:41;;;;;;;9.93;5.17;;;19.60;78.40;;;;;;5075817;28;20208;-66
2022/05/21 02:53:15;;;;;;;13.27;5.23;;;19.60;78.60;;;;;;5091111;28;20602;-66
2022/05/21 02:55:42;;;;;;;13.57;5.97;;;19.60;78.70;;;;;;5088282;28;20653;-67
2022/05/21 02:58:09;;;;;;;9.60;5.83;;;19.60;78.70;;;;;;5079117;28;20208;-67
2022/05/21 03:00:36;;;;;;;11.53;4.37;;;19.60;78.50;;;;;;5096315;28;20638;-68
2022/05/21 03:03:04;;;;;;;6.73;4.57;;;19.60;77.70;;;;;;5089255;28;20206;-68
2022/05/21 03:05:31;;;;;;;8.27;3.77;;;19.60;77.00;;;;;;5086335;28;20206;-68
2022/05/21 03:10:20;;;;;;;9.10;3.80;;;19.60;76.00;;;;;;5076223;28;20299;-69
2022/05/21 03:10:52;;;;;;;5.90;3.67;;;19.60;74.90;;;;;;5089293;28;20202;-68
2022/05/21 03:13:19;;;;;;;7.80;3.20;;;19.70;73.90;;;;;;5080990;28;20207;-68
2022/05/21 03:15:47;;;;;;;10.00;3.47;;;19.60;73.30;;;;;;5095146;28;20286;-70
2022/05/21 03:18:15;;;;;;;7.97;3.50;;;19.70;72.80;;;;;;5105747;28;20203;-70
2022/05/21 03:20:43;;;;;;;8.47;3.73;;;19.70;72.20;;;;;;5088377;28;20554;-68
2022/05/21 03:23:11;;;;;;;13.27;3.90;;;19.70;71.80;;;;;;5079446;28;20242;-68
2022/05/21 03:25:39;;;;;;;11.60;4.50;;;19.70;71.60;;;;;;5078917;28;20257;-68
2022/05/21 03:28:07;;;;;;;16.13;4.20;;;19.70;71.80;;;;;;5070382;28;20225;-68
2022/05/21 03:30:34;;;;;;;9.93;4.20;;;19.70;72.20;;;;;;5072825;28;20216;-69
2022/05/21 03:33:01;;;;;;;9.33;4.83;;;19.70;72.40;;;;;;5065638;28;20215;-70
2022/05/21 03:35:28;;;;;;;9.57;4.27;;;19.60;72.60;;;;;;5074182;28;20212;-68
2022/05/21 03:37:55;;;;;;;8.53;4.73;;;19.60;72.80;;;;;;5079148;28;20204;-68
2022/05/21 03:40:25;;;;;;;9.57;5.23;;;19.50;73.10;;;;;;5058783;28;20212;-68
2022/05/21 03:42:54;;;;;;;15.47;5.87;;;19.50;73.70;;;;;;5073006;28;20300;-68
2022/05/21 03:45:22;;;;;;;13.87;5.70;;;19.40;74.00;;;;;;5077426;28;20225;-68
2022/05/21 03:47:50;;;;;;;17.27;5.43;;;19.30;74.10;;;;;;5085474;28;20256;-68
2022/05/21 03:50:20;;;;;;;14.70;5.87;;;19.30;74.10;;;;;;5077983;28;20656;-68
2022/05/21 03:52:47;;;;;;;10.20;4.87;;;19.20;74.60;;;;;;5066559;28;20242;-68
2022/05/21 03:55:15;;;;;;;14.87;5.53;;;19.20;74.90;;;;;;5091378;28;20216;-68
2022/05/21 03:57:42;;;;;;;11.37;5.83;;;19.20;75.00;;;;;;5083559;28;20588;-68
2022/05/21 04:00:13;;;;;;;21.67;5.93;;;19.20;75.10;;;;;;5055829;28;20241;-68
2022/05/21 04:02:40;;;;;;;9.93;5.17;;;19.20;75.30;;;;;;5089377;28;20676;-68
2022/05/21 04:05:13;;;;;;;12.23;4.90;;;19.20;75.00;;;;;;5090295;28;20237;-68
2022/05/21 04:07:41;;;;;;;9.17;4.37;;;19.10;74.60;;;;;;5083184;28;20198;-68
2022/05/21 04:10:10;;;;;;;14.70;5.50;;;19.10;74.60;;;;;;5091192;28;20208;-68
2022/05/21 04:12:37;;;;;;;12.07;4.90;;;19.10;74.50;;;;;;5084711;28;20663;-68
2022/05/21 04:15:05;;;;;;;10.57;4.33;;;19.20;74.00;;;;;;5077451;28;20232;-68
2022/05/21 04:17:32;;;;;;;8.97;4.80;;;19.20;73.80;;;;;;5097502;28;20203;-68
2022/05/21 04:19:59;;;;;;;10.17;4.87;;;19.20;73.70;;;;;;5090535;28;20224;-68
2022/05/21 04:22:26;;;;;;;9.57;4.67;;;19.20;73.40;;;;;;5073043;28;20214;-68
2022/05/21 04:24:53;;;;;;;10.23;5.30;;;19.30;73.10;;;;;;5072964;28;20239;-68
2022/05/21 04:27:21;;;;;;;8.17;4.33;;;19.30;73.10;;;;;;5091911;28;20196;-68
2022/05/21 04:29:49;;;;;;;9.07;5.50;;;19.30;73.10;;;;;;5076580;28;20200;-68
2022/05/21 04:32:16;;;;;;;7.77;5.07;;;19.30;73.20;;;;;;5061487;28;20210;-68
2022/05/21 04:34:43;;;;;;;8.07;4.77;;;19.30;73.50;;;;;;5076565;28;20210;-68
2022/05/21 04:37:10;;;;;;;11.63;5.47;;;19.30;73.90;;;;;;5079973;28;20210;-68
2022/05/21 04:39:37;;;;;;;15.23;8.10;;;19.40;74.10;;;;;;5093444;28;20218;-68
2022/05/21 04:42:05;;;;;;;16.43;9.90;;;19.50;73.90;;;;;;5078543;28;20208;-68
2022/05/21 04:44:34;;;;;;;38.03;24.73;;;19.50;73.90;;;;;;5078911;28;20229;-68
2022/05/21 04:47:02;;;;;;;47.70;25.00;;;19.50;73.90;;;;;;5073114;28;20196;-68
2022/05/21 04:49:30;;;;;;;51.03;29.00;;;19.60;74.00;;;;;;5065033;28;20600;-68
2022/05/21 04:52:01;;;;;;;48.63;21.70;;;19.70;73.30;;;;;;5092833;28;20192;-69
2022/05/21 04:54:29;;;;;;;30.03;13.40;;;19.70;73.10;;;;;;5086341;28;20720;-68
2022/05/21 04:56:56;;;;;;;40.00;17.33;;;19.80;72.80;;;;;;5071744;28;20218;-68
2022/05/21 04:59:23;;;;;;;13.73;7.93;;;19.90;72.70;;;;;;5079646;28;20222;-68
2022/05/21 05:01:50;;;;;;;12.93;6.93;;;20.00;72.30;;;;;;5091555;28;20221;-68
2022/05/21 05:04:18;;;;;;;9.70;6.10;;;20.00;71.90;;;;;;5073431;28;20220;-68
2022/05/21 05:06:45;;;;;;;14.57;7.07;;;20.20;71.50;;;;;;5073355;28;20228;-68
2022/05/21 05:09:12;;;;;;;8.33;6.13;;;20.30;71.40;;;;;;5090680;28;20653;-70
2022/05/21 05:11:39;;;;;;;12.27;6.80;;;20.40;71.00;;;;;;5057662;28;20204;-68
2022/05/21 05:14:06;;;;;;;9.87;5.97;;;20.50;70.50;;;;;;5095589;28;20655;-68
2022/05/21 05:16:33;;;;;;;10.60;5.97;;;20.70;70.10;;;;;;5090956;28;20231;-69
2022/05/21 05:19:01;;;;;;;10.87;6.40;;;20.90;69.60;;;;;;5101236;28;20558;-70
2022/05/21 05:21:28;;;;;;;11.57;6.07;;;21.00;69.20;;;;;;5092178;28;20291;-70
2022/05/21 05:23:55;;;;;;;9.87;5.67;;;21.20;68.90;;;;;;5085464;28;20231;-70
2022/05/21 05:26:23;;;;;;;10.70;6.50;;;21.40;68.60;;;;;;5075986;28;20210;-70
2022/05/21 05:28:50;;;;;;;9.13;6.10;;;21.50;67.90;;;;;;5080719;28;20207;-68
2022/05/21 05:31:17;;;;;;;11.83;6.83;;;21.70;67.60;;;;;;5074387;28;20233;-68
2022/05/21 05:33:45;;;;;;;8.60;6.60;;;21.90;67.00;;;;;;5084802;28;20273;-68
2022/05/21 05:36:12;;;;;;;14.13;6.40;;;22.20;66.40;;;;;;5089035;28;20205;-68
2022/05/21 05:38:41;;;;;;;10.40;6.47;;;22.30;66.20;;;;;;5087507;28;20221;-70
2022/05/21 05:41:08;;;;;;;11.60;6.87;;;22.50;65.70;;;;;;5091886;28;20202;-70
2022/05/21 05:43:35;;;;;;;10.13;6.33;;;22.60;65.00;;;;;;5094020;28;20202;-70
2022/05/21 05:46:02;;;;;;;11.73;5.90;;;22.70;65.00;;;;;;5095845;28;20208;-69
2022/05/21 05:48:30;;;;;;;12.10;6.57;;;22.80;64.90;;;;;;5085091;28;20228;-69
2022/05/21 05:50:59;;;;;;;11.63;5.80;;;22.90;64.50;;;;;;5076952;28;20205;-70
2022/05/21 05:53:26;;;;;;;11.13;6.47;;;23.00;64.10;;;;;;5076462;28;20212;-69
2022/05/21 05:55:54;;;;;;;12.90;6.37;;;23.10;63.70;;;;;;5076519;28;20259;-69
2022/05/21 06:01:10;;;;;;;12.90;7.47;;;23.30;63.70;;;;;;5076075;28;20201;-69
2022/05/21 06:03:37;;;;;;;10.83;7.40;;;23.50;63.90;;;;;;5062060;28;20606;-70
2022/05/21 06:06:05;;;;;;;13.17;6.47;;;23.70;64.00;;;;;;5091556;28;20208;-69
2022/05/21 06:08:33;;;;;;;15.33;7.03;;;23.80;63.80;;;;;;5066422;28;20209;-70
2022/05/21 06:11:00;;;;;;;11.80;6.53;;;23.90;63.20;;;;;;5069694;28;20224;-71
2022/05/21 06:13:27;;;;;;;11.77;6.07;;;24.10;62.90;;;;;;5078874;28;20289;-70
2022/05/21 06:15:55;;;;;;;9.13;6.87;;;24.20;62.60;;;;;;5105678;28;20201;-70
2022/05/21 06:18:22;;;;;;;8.63;5.97;;;24.40;62.10;;;;;;5091606;28;20201;-70
2022/05/21 06:20:50;;;;;;;8.27;6.20;;;24.50;61.90;;;;;;5082003;28;20201;-70
2022/05/21 06:23:20;;;;;;;8.83;6.20;;;24.60;62.30;;;;;;5078382;28;20234;-70
2022/05/21 06:25:47;;;;;;;11.07;7.30;;;24.70;62.50;;;;;;5081738;28;20224;-70
2022/05/21 06:28:14;;;;;;;9.03;6.20;;;24.90;62.60;;;;;;5075718;28;20643;-70
2022/05/21 06:30:43;;;;;;;11.10;6.40;;;25.10;62.70;;;;;;5087904;28;20197;-70
2022/05/21 06:33:13;;;;;;;10.60;6.83;;;25.20;62.10;;;;;;5079837;28;20229;-71
2022/05/21 06:35:40;;;;;;;8.77;5.97;;;25.40;62.00;;;;;;5069204;28;20209;-71
2022/05/21 06:38:07;;;;;;;9.13;6.33;;;25.60;62.20;;;;;;5092372;28;20213;-68
2022/05/21 06:40:34;;;;;;;14.03;6.97;;;25.70;61.50;;;;;;5084207;28;20538;-69
2022/05/21 06:43:02;;;;;;;10.83;6.73;;;25.90;61.00;;;;;;5076686;28;20201;-70
2022/05/21 06:45:33;;;;;;;8.53;5.70;;;26.00;60.40;;;;;;5085557;28;20240;-70
2022/05/21 06:48:06;;;;;;;7.00;6.30;;;26.20;59.90;;;;;;5078291;28;20205;-70
2022/05/21 06:50:35;;;;;;;11.47;6.50;;;26.30;60.00;;;;;;5083619;28;20285;-70
2022/05/21 06:53:02;;;;;;;9.23;5.90;;;26.40;59.30;;;;;;5077160;28;20194;-69
2022/05/21 06:55:29;;;;;;;8.43;6.20;;;26.50;58.50;;;;;;5084794;28;20201;-69
2022/05/21 06:57:56;;;;;;;10.70;6.10;;;26.60;58.50;;;;;;5092191;28;20418;-70
2022/05/21 07:00:24;;;;;;;7.73;5.00;;;26.70;57.60;;;;;;5074553;28;20580;-70
2022/05/21 07:02:55;;;;;;;6.43;4.90;;;26.80;58.00;;;;;;5074518;28;20590;-70
2022/05/21 07:08:22;;;;;;;12.53;5.30;;;27.00;57.60;;;;;;5090637;28;20204;-70
2022/05/21 07:10:49;;;;;;;7.07;4.67;;;27.10;57.20;;;;;;5085179;28;20642;-70
2022/05/21 07:13:18;;;;;;;6.10;4.67;;;27.10;56.90;;;;;;5092449;28;20212;-70
2022/05/21 07:15:49;;;;;;;8.93;5.37;;;27.20;56.80;;;;;;5084761;28;20206;-70
2022/05/21 07:18:18;;;;;;;13.00;5.90;;;27.30;56.20;;;;;;5092815;28;20215;-70
2022/05/21 07:20:46;;;;;;;15.00;6.33;;;27.30;54.70;;;;;;5083895;28;20631;-70
2022/05/21 07:23:13;;;;;;;11.57;5.40;;;27.30;55.70;;;;;;5093163;28;20241;-70
2022/05/21 07:25:42;;;;;;;14.63;5.70;;;27.30;54.90;;;;;;5085217;28;20291;-70
2022/05/21 07:28:10;;;;;;;16.10;4.87;;;27.50;54.70;;;;;;5094965;28;20225;-71
2022/05/21 07:30:38;;;;;;;6.90;5.40;;;27.50;55.00;;;;;;5088730;28;20220;-70
2022/05/21 07:33:10;;;;;;;10.30;5.07;;;27.60;56.00;;;;;;5093210;28;20770;-70
2022/05/21 07:35:37;;;;;;;11.67;6.10;;;27.70;55.20;;;;;;5088907;28;20216;-70
2022/05/21 07:38:06;;;;;;;8.23;4.43;;;27.90;53.40;;;;;;5078528;28;20206;-71
2022/05/21 07:40:34;;;;;;;12.77;3.97;;;28.00;53.20;;;;;;5083066;28;20630;-70
2022/05/21 07:43:22;;;;;;;9.50;4.43;;;28.00;51.70;;;;;;5092207;28;20217;-70
2022/05/21 07:45:49;;;;;;;7.50;4.03;;;28.00;52.80;;;;;;5104291;28;20255;-71
2022/05/21 07:48:21;;;;;;;8.20;4.80;;;28.00;51.70;;;;;;5064520;28;20205;-71
2022/05/21 07:50:54;;;;;;;5.97;4.10;;;28.10;51.20;;;;;;5088376;28;20200;-71
2022/05/21 07:53:23;;;;;;;7.53;4.10;;;28.20;50.60;;;;;;5090526;28;20289;-71
2022/05/21 07:55:53;;;;;;;7.90;5.40;;;28.20;51.00;;;;;;5061079;28;20201;-71
2022/05/21 07:58:22;;;;;;;6.20;3.70;;;28.30;50.90;;;;;;5075524;28;20324;-71
2022/05/21 08:00:51;;;;;;;5.63;4.00;;;28.30;50.20;;;;;;5087626;28;20683;-70
2022/05/21 08:03:19;;;;;;;8.30;4.83;;;28.40;50.00;;;;;;5094035;28;20254;-70
2022/05/21 08:05:46;;;;;;;8.07;4.20;;;28.40;50.10;;;;;;5081384;28;20551;-70
2022/05/21 08:08:14;;;;;;;6.67;4.37;;;28.40;50.70;;;;;;5089683;28;20210;-70
2022/05/21 08:10:43;;;;;;;9.53;4.90;;;28.50;51.20;;;;;;5082211;28;20660;-71
2022/05/21 08:13:13;;;;;;;6.73;4.30;;;28.50;51.10;;;;;;5078865;28;20287;-71
2022/05/21 08:15:40;;;;;;;7.43;4.27;;;28.60;51.40;;;;;;5079611;28;20255;-71
2022/05/21 08:18:08;;;;;;;6.63;3.77;;;28.70;51.90;;;;;;5105808;28;20208;-71
2022/05/21 08:20:37;;;;;;;6.00;3.60;;;28.90;51.90;;;;;;5099138;28;20205;-71
2022/05/21 08:28:36;;;;;;;7.50;3.90;;;29.50;50.30;;;;;;5078079;28;20201;-71
2022/05/21 08:31:04;;;;;;;5.37;3.47;;;29.70;49.90;;;;;;5064725;28;20201;-71
2022/05/21 08:33:31;;;;;;;4.30;3.40;;;29.80;49.20;;;;;;5090409;28;20205;-71
2022/05/21 08:35:59;;;;;;;7.53;4.00;;;29.90;49.20;;;;;;5085732;28;20205;-71
2022/05/21 08:38:26;;;;;;;5.93;3.47;;;30.00;48.40;;;;;;5089159;28;20208;-71
2022/05/21 08:41:27;;;;;;;7.20;3.60;;;30.00;48.10;;;;;;5070841;28;20631;-71
2022/05/21 08:43:54;;;;;;;6.07;3.60;;;30.10;48.00;;;;;;5053942;28;20220;-71
2022/05/21 08:46:34;;;;;;;4.53;2.90;;;30.20;48.00;;;;;;5086889;28;20229;-71
2022/05/21 08:49:06;;;;;;;6.53;3.30;;;30.20;46.40;;;;;;5093234;28;20582;-71
2022/05/21 08:51:52;;;;;;;8.43;4.40;;;30.20;47.60;;;;;;5079460;28;20557;-71
2022/05/21 08:54:25;;;;;;;6.77;3.53;;;30.20;48.20;;;;;;5069788;28;20738;-72
2022/05/21 08:56:54;;;;;;;12.23;4.67;;;30.30;48.60;;;;;;5071938;28;20220;-73
2022/05/21 08:59:29;;;;;;;10.63;4.43;;;30.50;48.60;;;;;;5090420;28;20204;-73
2022/05/21 09:01:57;;;;;;;4.87;3.13;;;30.60;47.70;;;;;;5094547;28;20261;-73
2022/05/21 09:04:27;;;;;;;3.70;3.20;;;30.70;47.40;;;;;;5075777;28;20296;-71
2022/05/21 09:07:00;;;;;;;7.60;3.67;;;30.90;46.90;;;;;;5068397;28;20205;-72
2022/05/21 09:09:27;;;;;;;7.23;3.60;;;31.00;46.80;;;;;;5062228;28;20226;-71
2022/05/21 09:12:18;;;;;;;5.23;3.27;;;31.10;45.70;;;;;;5082888;28;20199;-73
2022/05/21 09:14:49;;;;;;;4.43;2.70;;;31.20;45.80;;;;;;5076149;28;20343;-71
2022/05/21 09:17:19;;;;;;;3.13;2.83;;;31.30;45.60;;;;;;5089526;28;20209;-70
2022/05/21 09:19:55;;;;;;;4.67;2.80;;;31.30;46.00;;;;;;5087470;28;20288;-70
2022/05/21 09:22:29;;;;;;;5.47;3.50;;;31.30;45.90;;;;;;5085475;28;20208;-70
2022/05/21 09:25:22;;;;;;;4.53;2.67;;;31.10;45.60;;;;;;5093070;28;20222;-70
2022/05/21 09:28:04;;;;;;;7.97;3.17;;;30.90;45.70;;;;;;5067819;28;20194;-70
2022/05/21 09:30:33;;;;;;;4.97;3.43;;;30.80;46.10;;;;;;5077263;28;20205;-70
2022/05/21 09:33:23;;;;;;;4.83;3.47;;;30.70;46.60;;;;;;5071267;28;20197;-72
2022/05/21 09:35:54;;;;;;;6.83;3.13;;;30.70;46.60;;;;;;5077329;28;20231;-70
2022/05/21 09:38:49;;;;;;;6.93;3.33;;;30.80;46.60;;;;;;5087563;28;20194;-71
2022/05/21 09:41:22;;;;;;;5.53;3.03;;;31.00;46.50;;;;;;5090027;28;20235;-71
2022/05/21 09:47:15;;;;;;;9.70;3.03;;;31.30;45.40;;;;;;5070373;28;20208;-73
2022/05/21 09:49:43;;;;;;;11.83;3.63;;;31.60;45.30;;;;;;5108533;28;20209;-73
2022/05/21 09:52:24;;;;;;;6.10;3.47;;;31.70;45.10;;;;;;5071753;28;20698;-72
2022/05/21 09:54:52;;;;;;;7.63;2.97;;;31.80;44.90;;;;;;5092398;28;20213;-72
2022/05/21 09:57:44;;;;;;;6.07;3.13;;;31.90;44.50;;;;;;5090771;28;20243;-72
2022/05/21 10:00:25;;;;;;;8.50;3.23;;;32.10;44.80;;;;;;5080688;28;20208;-71
2022/05/21 10:02:56;;;;;;;6.87;3.23;;;32.20;44.00;;;;;;5069419;28;20207;-70
2022/05/21 10:05:28;;;;;;;6.63;2.97;;;32.30;44.60;;;;;;5087707;28;20640;-71
2022/05/21 10:11:03;;;;;;;4.83;3.30;;;32.40;44.00;;;;;;5081530;28;20203;-70
2022/05/21 10:13:34;;;;;;;4.87;3.00;;;32.40;44.80;;;;;;5083024;28;20212;-72
2022/05/21 10:16:28;;;;;;;6.60;3.37;;;32.40;45.00;;;;;;5086209;28;20703;-72
2022/05/21 10:19:10;;;;;;;6.33;3.17;;;32.40;43.90;;;;;;5085764;28;20267;-70
2022/05/21 10:22:10;;;;;;;5.73;3.67;;;32.50;43.70;;;;;;5094702;28;20237;-71
2022/05/21 10:24:53;;;;;;;8.03;3.67;;;32.50;43.50;;;;;;5096773;28;20237;-73
2022/05/21 10:27:33;;;;;;;5.47;3.60;;;32.60;43.70;;;;;;5103805;28;20219;-73
2022/05/21 10:30:12;;;;;;;8.97;3.43;;;32.70;43.60;;;;;;5078160;28;20198;-74
2022/05/21 10:32:55;;;;;;;6.60;3.47;;;32.80;44.10;;;;;;5062613;28;20296;-71
2022/05/21 10:35:50;;;;;;;11.20;3.53;;;32.90;43.80;;;;;;5081477;28;20213;-71
2022/05/21 10:38:38;;;;;;;23.83;4.57;;;33.00;43.60;;;;;;5085000;28;20233;-71
2022/05/21 10:41:28;;;;;;;17.80;3.70;;;32.90;41.70;;;;;;5093583;28;20208;-70
2022/05/21 10:44:28;;;;;;;12.13;3.63;;;32.90;43.00;;;;;;5084972;28;20302;-70
2022/05/21 10:47:03;;;;;;;5.07;3.03;;;32.90;43.80;;;;;;5077494;28;20205;-70
2022/05/21 10:50:16;;;;;;;5.17;3.63;;;33.00;44.00;;;;;;5104065;28;20254;-71
2022/05/21 10:53:11;;;;;;;54.57;7.47;;;33.20;44.20;;;;;;5071317;28;20202;-71
2022/05/21 10:55:47;;;;;;;10.13;3.73;;;33.20;43.70;;;;;;5095354;28;20570;-71
2022/05/21 10:58:36;;;;;;;4.60;2.83;;;33.20;42.10;;;;;;5081315;28;20200;-71
2022/05/21 11:01:21;;;;;;;5.50;3.37;;;33.20;41.90;;;;;;5076072;28;20202;-71
2022/05/21 11:04:09;;;;;;;3.27;2.80;;;33.20;42.40;;;;;;5095252;28;20217;-71
2022/05/21 11:07:08;;;;;;;5.50;3.40;;;33.30;43.10;;;;;;5074322;28;20703;-71
2022/05/21 11:09:53;;;;;;;6.60;3.20;;;33.40;43.20;;;;;;5087288;28;20537;-71
2022/05/21 11:12:26;;;;;;;5.20;3.10;;;33.50;42.40;;;;;;5076514;28;20194;-71
2022/05/21 11:15:03;;;;;;;3.30;3.07;;;33.50;42.10;;;;;;5082029;28;20678;-71
2022/05/21 11:17:30;;;;;;;5.73;3.00;;;33.50;42.50;;;;;;5071489;28;20220;-71
2022/05/21 11:20:11;;;;;;;9.03;3.90;;;33.50;42.50;;;;;;5080888;28;20651;-73
2022/05/21 11:22:58;;;;;;;6.17;3.40;;;33.60;41.30;;;;;;5056377;28;20614;-73
2022/05/21 11:25:34;;;;;;;4.03;2.80;;;33.60;42.00;;;;;;5083820;28;20240;-73
2022/05/21 11:28:09;;;;;;;5.13;3.17;;;33.70;42.00;;;;;;5105042;28;20262;-73
2022/05/21 11:30:37;;;;;;;7.83;3.10;;;33.70;42.20;;;;;;5096105;28;20209;-73
2022/05/21 11:39:10;;;;;;;5.10;3.00;;;33.80;40.90;;;;;;5031169;28;20221;-73
2022/05/21 11:42:08;;;;;;;6.20;3.40;;;33.80;41.30;;;;;;5031187;28;20622;-73
2022/05/21 11:47:46;;;;;;;6.23;3.03;;;33.90;41.70;;;;;;5090715;28;20229;-73
2022/05/21 11:50:20;;;;;;;9.80;3.27;;;33.90;41.90;;;;;;5101314;28;20530;-72
2022/05/21 11:52:52;;;;;;;5.43;2.93;;;33.90;40.60;;;;;;5073216;28;20628;-71
2022/05/21 11:55:31;;;;;;;8.97;3.00;;;33.90;40.80;;;;;;5073748;28;20293;-71
2022/05/21 11:58:00;;;;;;;4.87;2.93;;;33.90;41.00;;;;;;5066063;28;20205;-72
2022/05/21 12:00:27;;;;;;;6.60;2.93;;;34.00;41.40;;;;;;5082813;28;20214;-70
2022/05/21 12:03:02;;;;;;;3.13;2.87;;;33.90;41.00;;;;;;5076265;28;20247;-73
2022/05/21 12:05:33;;;;;;;4.87;3.10;;;34.00;41.00;;;;;;5099808;28;20279;-73
2022/05/21 12:08:21;;;;;;;6.57;3.17;;;34.00;41.20;;;;;;5090960;28;20217;-70
2022/05/21 12:11:18;;;;;;;5.10;2.90;;;34.00;40.80;;;;;;5100649;28;20221;-72
2022/05/21 12:13:50;;;;;;;7.63;3.10;;;34.10;40.90;;;;;;5096359;28;20229;-71
2022/05/21 12:16:20;;;;;;;6.37;3.30;;;34.00;41.10;;;;;;5067257;28;20213;-71
2022/05/21 12:18:59;;;;;;;4.97;3.00;;;34.10;41.30;;;;;;5074301;28;20205;-70
2022/05/21 12:21:30;;;;;;;3.60;2.93;;;34.10;41.40;;;;;;5096418;28;20305;-70
2022/05/21 12:23:57;;;;;;;5.20;2.90;;;34.10;42.40;;;;;;5075469;28;20692;-70
2022/05/21 12:26:33;;;;;;;7.90;3.03;;;34.20;41.80;;;;;;5081296;28;20221;-71
2022/05/21 12:29:22;;;;;;;5.73;3.10;;;34.20;40.70;;;;;;5076865;28;20530;-71
2022/05/21 12:31:53;;;;;;;5.30;2.80;;;34.10;40.90;;;;;;5084144;28;20197;-71
2022/05/21 12:34:50;;;;;;;4.43;2.90;;;34.10;41.30;;;;;;5091119;28;20418;-71
2022/05/21 12:37:29;;;;;;;5.30;2.87;;;34.20;40.50;;;;;;5074964;28;20223;-73
2022/05/21 12:40:01;;;;;;;2.97;2.67;;;34.20;40.40;;;;;;5075345;28;20202;-72
2022/05/21 12:42:46;;;;;;;9.10;3.30;;;34.10;40.30;;;;;;5080443;28;20212;-72
2022/05/21 12:45:42;;;;;;;4.53;3.00;;;34.00;39.60;;;;;;5080561;28;20194;-71
2022/05/21 12:48:29;;;;;;;6.87;3.10;;;33.90;40.00;;;;;;5086431;28;20202;-70
2022/05/21 12:51:04;;;;;;;6.07;2.87;;;33.80;41.60;;;;;;5081071;28;20224;-70
2022/05/21 12:53:52;;;;;;;4.63;2.70;;;33.80;41.80;;;;;;5074281;28;20213;-70
2022/05/21 12:56:26;;;;;;;3.10;2.63;;;33.70;41.20;;;;;;5067348;28;20270;-71
2022/05/21 12:59:02;;;;;;;4.67;3.40;;;33.70;41.90;;;;;;5079023;28;20205;-70
2022/05/21 13:01:31;;;;;;;4.43;3.33;;;33.70;42.20;;;;;;5073177;28;20646;-70
2022/05/21 13:03:59;;;;;;;5.10;2.80;;;33.80;42.30;;;;;;5069996;28;20232;-70
2022/05/21 13:06:32;;;;;;;5.80;3.13;;;33.90;41.70;;;;;;5073646;28;20228;-71
2022/05/21 13:09:04;;;;;;;4.40;3.10;;;33.90;40.70;;;;;;5090835;28;20236;-73
2022/05/21 13:11:41;;;;;;;7.80;3.20;;;33.80;41.00;;;;;;5103087;28;20232;-73
2022/05/21 13:14:13;;;;;;;4.30;3.10;;;33.60;40.90;;;;;;5090568;28;20216;-73
2022/05/21 13:16:54;;;;;;;5.43;2.90;;;33.50;41.10;;;;;;5083516;28;20212;-73
2022/05/21 13:19:44;;;;;;;5.67;3.43;;;33.40;41.30;;;;;;5058782;28;20645;-71
2022/05/21 13:22:33;;;;;;;5.80;3.30;;;33.30;40.60;;;;;;5101225;28;20274;-71
2022/05/21 13:25:09;;;;;;;4.67;2.87;;;33.20;41.20;;;;;;5076431;28;20243;-71
2022/05/21 13:28:12;;;;;;;5.30;2.87;;;33.30;42.00;;;;;;5072266;28;20240;-71
2022/05/21 13:30:44;;;;;;;8.47;3.17;;;33.40;42.60;;;;;;5082755;28;20556;-70
2022/05/21 13:33:15;;;;;;;6.63;3.40;;;33.50;42.40;;;;;;5104238;28;20501;-73
2022/05/21 13:35:44;;;;;;;4.33;2.57;;;33.50;42.50;;;;;;5067117;28;20217;-71
2022/05/21 13:38:13;;;;;;;6.63;2.93;;;33.60;41.30;;;;;;5088044;28;20645;-71
2022/05/21 13:40:53;;;;;;;6.73;2.70;;;33.60;41.30;;;;;;5091292;28;20211;-72